sensor_id;sensor_type;location;lat;lon;timestamp;P1;durP1;ratioP1;P2;durP2;ratioP2
21034;SDS011;10676;50.848;3.272;2023-05-10T00:01:56;29.52;;;14.98;;
21034;SDS011;10676;50.848;3.272;2023-05-10T00:04:21;36.67;;;14.88;;
21034;SDS011;10676;50.848;3.272;2023-05-10T00:06:47;36.33;;;16.27;;
21034;SDS011;10676;50.848;3.272;2023-05-10T00:09:13;33.85;;;15.73;;
21034;SDS011;10676;50.848;3.272;2023-05-10T00:11:39;39.28;;;17.65;;
21034;SDS011;10676;50.848;3.272;2023-05-10T00:14:04;38.55;;;17.33;;
21034;SDS011;10676;50.848;3.272;2023-05-10T00:16:30;37.03;;;17.75;;
21034;SDS011;10676;50.848;3.272;2023-05-10T00:18:56;37.75;;;16.90;;
21034;SDS011;10676;50.848;3.272;2023-05-10T00:21:21;41.45;;;17.65;;
21034;SDS011;10676;50.848;3.272;2023-05-10T00:23:47;37.92;;;17.45;;
21034;SDS011;10676;50.848;3.272;2023-05-10T00:26:13;41.92;;;18.63;;
21034;SDS011;10676;50.848;3.272;2023-05-10T00:28:38;36.95;;;17.23;;
21034;SDS011;10676;50.848;3.272;2023-05-10T00:31:04;40.33;;;18.05;;
21034;SDS011;10676;50.848;3.272;2023-05-10T00:33:30;43.58;;;18.70;;
21034;SDS011;10676;50.848;3.272;2023-05-10T00:35:55;39.33;;;17.08;;
21034;SDS011;10676;50.848;3.272;2023-05-10T00:38:21;41.08;;;18.10;;
21034;SDS011;10676;50.848;3.272;2023-05-10T00:40:47;41.35;;;18.95;;
21034;SDS011;10676;50.848;3.272;2023-05-10T00:43:13;37.30;;;17.52;;
21034;SDS011;10676;50.848;3.272;2023-05-10T00:45:39;38.53;;;16.77;;
21034;SDS011;10676;50.848;3.272;2023-05-10T00:48:06;34.47;;;17.52;;
21034;SDS011;10676;50.848;3.272;2023-05-10T00:50:32;41.95;;;18.88;;
21034;SDS011;10676;50.848;3.272;2023-05-10T00:52:59;33.92;;;16.48;;
21034;SDS011;10676;50.848;3.272;2023-05-10T00:55:25;32.75;;;16.17;;
21034;SDS011;10676;50.848;3.272;2023-05-10T00:57:52;31.83;;;15.63;;
21034;SDS011;10676;50.848;3.272;2023-05-10T01:00:19;32.13;;;16.13;;
21034;SDS011;10676;50.848;3.272;2023-05-10T01:02:45;29.48;;;14.93;;
21034;SDS011;10676;50.848;3.272;2023-05-10T01:05:11;30.35;;;15.35;;
21034;SDS011;10676;50.848;3.272;2023-05-10T01:07:37;32.15;;;16.23;;
21034;SDS011;10676;50.848;3.272;2023-05-10T01:10:04;31.33;;;15.80;;
21034;SDS011;10676;50.848;3.272;2023-05-10T01:12:31;34.17;;;16.08;;
21034;SDS011;10676;50.848;3.272;2023-05-10T01:14:59;36.90;;;16.63;;
21034;SDS011;10676;50.848;3.272;2023-05-10T01:17:26;29.15;;;15.82;;
21034;SDS011;10676;50.848;3.272;2023-05-10T01:19:52;35.60;;;16.80;;
21034;SDS011;10676;50.848;3.272;2023-05-10T01:25:11;35.03;;;17.05;;
21034;SDS011;10676;50.848;3.272;2023-05-10T01:33:26;36.42;;;17.30;;
21034;SDS011;10676;50.848;3.272;2023-05-10T01:38:43;33.70;;;18.05;;
21034;SDS011;10676;50.848;3.272;2023-05-10T01:41:28;41.88;;;18.20;;
21034;SDS011;10676;50.848;3.272;2023-05-10T01:47:16;34.67;;;18.17;;
21034;SDS011;10676;50.848;3.272;2023-05-10T01:49:49;33.83;;;17.63;;
21034;SDS011;10676;50.848;3.272;2023-05-10T01:52:18;40.65;;;19.63;;
21034;SDS011;10676;50.848;3.272;2023-05-10T01:54:49;34.95;;;17.98;;
21034;SDS011;10676;50.848;3.272;2023-05-10T01:57:20;34.50;;;18.77;;
21034;SDS011;10676;50.848;3.272;2023-05-10T01:59:50;32.40;;;18.55;;
21034;SDS011;10676;50.848;3.272;2023-05-10T02:02:18;32.60;;;18.17;;
21034;SDS011;10676;50.848;3.272;2023-05-10T02:04:46;37.60;;;17.77;;
21034;SDS011;10676;50.848;3.272;2023-05-10T02:07:14;29.25;;;17.50;;
21034;SDS011;10676;50.848;3.272;2023-05-10T02:09:42;34.75;;;17.48;;
21034;SDS011;10676;50.848;3.272;2023-05-10T02:12:13;31.50;;;16.42;;
21034;SDS011;10676;50.848;3.272;2023-05-10T02:14:40;30.98;;;17.23;;
21034;SDS011;10676;50.848;3.272;2023-05-10T02:17:07;30.10;;;16.65;;
21034;SDS011;10676;50.848;3.272;2023-05-10T02:19:35;31.33;;;16.13;;
21034;SDS011;10676;50.848;3.272;2023-05-10T02:22:05;29.85;;;15.18;;
21034;SDS011;10676;50.848;3.272;2023-05-10T02:24:33;30.60;;;15.82;;
21034;SDS011;10676;50.848;3.272;2023-05-10T02:27:01;30.77;;;14.40;;
21034;SDS011;10676;50.848;3.272;2023-05-10T02:29:28;24.50;;;14.55;;
21034;SDS011;10676;50.848;3.272;2023-05-10T02:31:57;29.65;;;15.35;;
21034;SDS011;10676;50.848;3.272;2023-05-10T02:34:25;38.33;;;15.23;;
21034;SDS011;10676;50.848;3.272;2023-05-10T02:36:52;36.88;;;15.93;;
21034;SDS011;10676;50.848;3.272;2023-05-10T02:39:19;36.70;;;15.25;;
21034;SDS011;10676;50.848;3.272;2023-05-10T02:41:46;33.75;;;15.65;;
21034;SDS011;10676;50.848;3.272;2023-05-10T02:44:14;39.28;;;16.33;;
21034;SDS011;10676;50.848;3.272;2023-05-10T02:46:42;33.33;;;16.92;;
21034;SDS011;10676;50.848;3.272;2023-05-10T02:49:08;36.05;;;17.35;;
21034;SDS011;10676;50.848;3.272;2023-05-10T02:51:34;38.58;;;16.95;;
21034;SDS011;10676;50.848;3.272;2023-05-10T02:54:06;44.50;;;17.63;;
21034;SDS011;10676;50.848;3.272;2023-05-10T02:56:35;39.55;;;16.00;;
21034;SDS011;10676;50.848;3.272;2023-05-10T02:59:04;52.83;;;17.05;;
21034;SDS011;10676;50.848;3.272;2023-05-10T03:01:30;44.60;;;16.17;;
21034;SDS011;10676;50.848;3.272;2023-05-10T03:03:56;39.97;;;16.05;;
21034;SDS011;10676;50.848;3.272;2023-05-10T03:06:22;42.90;;;17.08;;
21034;SDS011;10676;50.848;3.272;2023-05-10T03:08:48;37.58;;;16.40;;
21034;SDS011;10676;50.848;3.272;2023-05-10T03:13:53;34.30;;;15.05;;
21034;SDS011;10676;50.848;3.272;2023-05-10T03:16:47;37.30;;;16.10;;
21034;SDS011;10676;50.848;3.272;2023-05-10T03:19:42;37.38;;;15.68;;
21034;SDS011;10676;50.848;3.272;2023-05-10T03:22:17;38.17;;;14.93;;
21034;SDS011;10676;50.848;3.272;2023-05-10T03:24:53;41.08;;;17.00;;
21034;SDS011;10676;50.848;3.272;2023-05-10T03:27:22;41.35;;;16.67;;
21034;SDS011;10676;50.848;3.272;2023-05-10T03:29:48;53.95;;;17.75;;
21034;SDS011;10676;50.848;3.272;2023-05-10T03:32:16;44.13;;;16.50;;
21034;SDS011;10676;50.848;3.272;2023-05-10T03:34:42;41.22;;;16.83;;
21034;SDS011;10676;50.848;3.272;2023-05-10T03:37:10;45.25;;;16.80;;
21034;SDS011;10676;50.848;3.272;2023-05-10T03:39:36;43.15;;;16.23;;
21034;SDS011;10676;50.848;3.272;2023-05-10T03:42:01;37.28;;;15.38;;
21034;SDS011;10676;50.848;3.272;2023-05-10T03:44:27;44.97;;;17.65;;
21034;SDS011;10676;50.848;3.272;2023-05-10T03:46:53;51.35;;;16.73;;
21034;SDS011;10676;50.848;3.272;2023-05-10T03:49:19;48.17;;;17.55;;
21034;SDS011;10676;50.848;3.272;2023-05-10T03:51:44;43.78;;;17.00;;
21034;SDS011;10676;50.848;3.272;2023-05-10T03:54:10;36.00;;;15.65;;
21034;SDS011;10676;50.848;3.272;2023-05-10T03:56:36;46.58;;;17.98;;
21034;SDS011;10676;50.848;3.272;2023-05-10T03:59:15;44.88;;;17.15;;
21034;SDS011;10676;50.848;3.272;2023-05-10T04:01:40;42.42;;;16.48;;
21034;SDS011;10676;50.848;3.272;2023-05-10T04:04:06;43.30;;;16.50;;
21034;SDS011;10676;50.848;3.272;2023-05-10T04:06:32;37.03;;;16.35;;
21034;SDS011;10676;50.848;3.272;2023-05-10T04:08:58;44.92;;;16.73;;
21034;SDS011;10676;50.848;3.272;2023-05-10T04:11:29;40.40;;;16.27;;
21034;SDS011;10676;50.848;3.272;2023-05-10T04:13:55;40.92;;;17.77;;
21034;SDS011;10676;50.848;3.272;2023-05-10T04:16:20;39.35;;;16.23;;
21034;SDS011;10676;50.848;3.272;2023-05-10T04:18:46;40.80;;;16.30;;
21034;SDS011;10676;50.848;3.272;2023-05-10T04:21:12;47.30;;;16.77;;
21034;SDS011;10676;50.848;3.272;2023-05-10T04:23:40;38.15;;;16.23;;
21034;SDS011;10676;50.848;3.272;2023-05-10T04:26:06;34.10;;;16.60;;
21034;SDS011;10676;50.848;3.272;2023-05-10T04:28:32;45.38;;;17.15;;
21034;SDS011;10676;50.848;3.272;2023-05-10T04:31:04;41.22;;;17.55;;
21034;SDS011;10676;50.848;3.272;2023-05-10T04:33:31;40.97;;;16.98;;
21034;SDS011;10676;50.848;3.272;2023-05-10T04:35:57;45.38;;;18.35;;
21034;SDS011;10676;50.848;3.272;2023-05-10T04:38:23;43.05;;;17.92;;
21034;SDS011;10676;50.848;3.272;2023-05-10T04:40:49;48.35;;;18.52;;
21034;SDS011;10676;50.848;3.272;2023-05-10T04:43:14;50.55;;;19.30;;
21034;SDS011;10676;50.848;3.272;2023-05-10T04:45:40;49.50;;;18.48;;
21034;SDS011;10676;50.848;3.272;2023-05-10T04:48:05;48.53;;;19.40;;
21034;SDS011;10676;50.848;3.272;2023-05-10T04:50:32;49.88;;;19.38;;
21034;SDS011;10676;50.848;3.272;2023-05-10T04:52:58;51.13;;;20.58;;
21034;SDS011;10676;50.848;3.272;2023-05-10T04:55:24;53.53;;;21.35;;
21034;SDS011;10676;50.848;3.272;2023-05-10T04:57:50;53.60;;;21.98;;
21034;SDS011;10676;50.848;3.272;2023-05-10T05:00:15;47.35;;;19.90;;
21034;SDS011;10676;50.848;3.272;2023-05-10T05:02:42;55.72;;;20.23;;
21034;SDS011;10676;50.848;3.272;2023-05-10T05:05:09;54.40;;;21.92;;
21034;SDS011;10676;50.848;3.272;2023-05-10T05:07:35;58.30;;;21.58;;
21034;SDS011;10676;50.848;3.272;2023-05-10T05:10:00;59.35;;;21.63;;
21034;SDS011;10676;50.848;3.272;2023-05-10T05:12:26;56.33;;;21.15;;
21034;SDS011;10676;50.848;3.272;2023-05-10T05:14:52;61.78;;;21.80;;
21034;SDS011;10676;50.848;3.272;2023-05-10T05:17:17;64.60;;;21.95;;
21034;SDS011;10676;50.848;3.272;2023-05-10T05:19:43;50.88;;;20.92;;
21034;SDS011;10676;50.848;3.272;2023-05-10T05:22:09;48.30;;;21.10;;
21034;SDS011;10676;50.848;3.272;2023-05-10T05:24:35;55.55;;;21.25;;
21034;SDS011;10676;50.848;3.272;2023-05-10T05:27:04;54.58;;;21.70;;
21034;SDS011;10676;50.848;3.272;2023-05-10T05:29:30;53.90;;;22.02;;
21034;SDS011;10676;50.848;3.272;2023-05-10T05:31:56;54.78;;;22.15;;
21034;SDS011;10676;50.848;3.272;2023-05-10T05:34:22;45.42;;;20.35;;
21034;SDS011;10676;50.848;3.272;2023-05-10T05:36:49;44.17;;;20.77;;
21034;SDS011;10676;50.848;3.272;2023-05-10T05:39:15;48.92;;;20.30;;
21034;SDS011;10676;50.848;3.272;2023-05-10T05:41:40;51.25;;;21.27;;
21034;SDS011;10676;50.848;3.272;2023-05-10T05:44:07;52.03;;;19.77;;
21034;SDS011;10676;50.848;3.272;2023-05-10T05:46:33;46.90;;;19.35;;
21034;SDS011;10676;50.848;3.272;2023-05-10T05:48:59;40.78;;;18.77;;
21034;SDS011;10676;50.848;3.272;2023-05-10T05:51:25;37.70;;;17.17;;
21034;SDS011;10676;50.848;3.272;2023-05-10T05:53:50;34.40;;;15.13;;
21034;SDS011;10676;50.848;3.272;2023-05-10T05:56:16;34.17;;;15.50;;
21034;SDS011;10676;50.848;3.272;2023-05-10T05:58:48;33.75;;;16.08;;
21034;SDS011;10676;50.848;3.272;2023-05-10T06:04:23;34.58;;;16.00;;
21034;SDS011;10676;50.848;3.272;2023-05-10T06:06:48;41.60;;;17.73;;
21034;SDS011;10676;50.848;3.272;2023-05-10T06:09:14;44.60;;;17.92;;
21034;SDS011;10676;50.848;3.272;2023-05-10T06:11:45;34.47;;;16.08;;
21034;SDS011;10676;50.848;3.272;2023-05-10T06:14:10;36.45;;;15.82;;
21034;SDS011;10676;50.848;3.272;2023-05-10T06:16:36;42.60;;;17.23;;
21034;SDS011;10676;50.848;3.272;2023-05-10T06:19:02;34.92;;;16.92;;
21034;SDS011;10676;50.848;3.272;2023-05-10T06:21:28;43.22;;;16.95;;
21034;SDS011;10676;50.848;3.272;2023-05-10T06:23:54;38.05;;;16.67;;
21034;SDS011;10676;50.848;3.272;2023-05-10T06:26:20;39.10;;;17.55;;
21034;SDS011;10676;50.848;3.272;2023-05-10T06:28:46;29.42;;;15.70;;
21034;SDS011;10676;50.848;3.272;2023-05-10T06:31:12;33.25;;;16.08;;
21034;SDS011;10676;50.848;3.272;2023-05-10T06:33:38;29.65;;;15.57;;
21034;SDS011;10676;50.848;3.272;2023-05-10T06:36:04;39.97;;;17.00;;
21034;SDS011;10676;50.848;3.272;2023-05-10T06:38:30;37.88;;;16.08;;
21034;SDS011;10676;50.848;3.272;2023-05-10T06:40:56;38.70;;;15.95;;
21034;SDS011;10676;50.848;3.272;2023-05-10T06:43:22;38.10;;;16.48;;
21034;SDS011;10676;50.848;3.272;2023-05-10T06:45:48;34.88;;;17.20;;
21034;SDS011;10676;50.848;3.272;2023-05-10T06:48:13;31.23;;;14.88;;
21034;SDS011;10676;50.848;3.272;2023-05-10T06:50:39;28.63;;;14.25;;
21034;SDS011;10676;50.848;3.272;2023-05-10T06:53:05;28.38;;;13.88;;
21034;SDS011;10676;50.848;3.272;2023-05-10T06:55:31;29.02;;;13.27;;
21034;SDS011;10676;50.848;3.272;2023-05-10T06:57:56;26.20;;;12.80;;
21034;SDS011;10676;50.848;3.272;2023-05-10T07:00:22;27.33;;;13.38;;
21034;SDS011;10676;50.848;3.272;2023-05-10T07:02:48;24.48;;;12.32;;
21034;SDS011;10676;50.848;3.272;2023-05-10T07:05:13;29.10;;;13.75;;
21034;SDS011;10676;50.848;3.272;2023-05-10T07:07:40;23.08;;;12.05;;
21034;SDS011;10676;50.848;3.272;2023-05-10T07:10:05;26.48;;;13.90;;
21034;SDS011;10676;50.848;3.272;2023-05-10T07:12:32;22.63;;;13.63;;
21034;SDS011;10676;50.848;3.272;2023-05-10T07:14:58;27.33;;;13.75;;
21034;SDS011;10676;50.848;3.272;2023-05-10T07:17:23;24.48;;;14.25;;
21034;SDS011;10676;50.848;3.272;2023-05-10T07:19:49;29.55;;;14.95;;
21034;SDS011;10676;50.848;3.272;2023-05-10T07:22:15;26.55;;;15.48;;
21034;SDS011;10676;50.848;3.272;2023-05-10T07:24:41;26.83;;;16.08;;
21034;SDS011;10676;50.848;3.272;2023-05-10T07:27:08;30.30;;;15.77;;
21034;SDS011;10676;50.848;3.272;2023-05-10T07:29:34;25.20;;;15.20;;
21034;SDS011;10676;50.848;3.272;2023-05-10T07:32:00;25.17;;;14.98;;
21034;SDS011;10676;50.848;3.272;2023-05-10T07:34:26;25.95;;;15.20;;
21034;SDS011;10676;50.848;3.272;2023-05-10T07:36:52;31.50;;;16.05;;
21034;SDS011;10676;50.848;3.272;2023-05-10T07:39:18;29.05;;;15.85;;
21034;SDS011;10676;50.848;3.272;2023-05-10T07:41:45;23.40;;;15.32;;
21034;SDS011;10676;50.848;3.272;2023-05-10T07:44:11;25.75;;;15.20;;
21034;SDS011;10676;50.848;3.272;2023-05-10T07:46:36;25.45;;;15.38;;
21034;SDS011;10676;50.848;3.272;2023-05-10T07:49:02;28.35;;;15.05;;
21034;SDS011;10676;50.848;3.272;2023-05-10T07:51:28;28.60;;;15.20;;
21034;SDS011;10676;50.848;3.272;2023-05-10T07:53:53;28.73;;;14.93;;
21034;SDS011;10676;50.848;3.272;2023-05-10T07:56:29;25.38;;;15.00;;
21034;SDS011;10676;50.848;3.272;2023-05-10T07:58:57;25.90;;;14.55;;
21034;SDS011;10676;50.848;3.272;2023-05-10T08:01:24;27.52;;;14.77;;
21034;SDS011;10676;50.848;3.272;2023-05-10T08:03:50;25.35;;;15.52;;
21034;SDS011;10676;50.848;3.272;2023-05-10T08:06:18;30.60;;;14.55;;
21034;SDS011;10676;50.848;3.272;2023-05-10T08:08:48;31.92;;;15.40;;
21034;SDS011;10676;50.848;3.272;2023-05-10T08:11:18;35.53;;;14.90;;
21034;SDS011;10676;50.848;3.272;2023-05-10T08:13:47;31.17;;;15.35;;
21034;SDS011;10676;50.848;3.272;2023-05-10T08:16:14;27.98;;;15.02;;
21034;SDS011;10676;50.848;3.272;2023-05-10T08:18:41;31.95;;;15.57;;
21034;SDS011;10676;50.848;3.272;2023-05-10T08:21:08;30.00;;;15.43;;
21034;SDS011;10676;50.848;3.272;2023-05-10T08:23:35;29.17;;;14.35;;
21034;SDS011;10676;50.848;3.272;2023-05-10T08:26:01;32.30;;;15.27;;
21034;SDS011;10676;50.848;3.272;2023-05-10T08:28:27;27.20;;;15.13;;
21034;SDS011;10676;50.848;3.272;2023-05-10T08:30:52;30.88;;;15.75;;
21034;SDS011;10676;50.848;3.272;2023-05-10T08:33:18;31.92;;;15.57;;
21034;SDS011;10676;50.848;3.272;2023-05-10T08:35:44;28.38;;;15.32;;
21034;SDS011;10676;50.848;3.272;2023-05-10T08:38:10;27.25;;;15.38;;
21034;SDS011;10676;50.848;3.272;2023-05-10T08:40:42;27.45;;;14.65;;
21034;SDS011;10676;50.848;3.272;2023-05-10T08:43:09;22.45;;;14.77;;
21034;SDS011;10676;50.848;3.272;2023-05-10T08:45:40;28.40;;;13.75;;
21034;SDS011;10676;50.848;3.272;2023-05-10T08:48:08;20.67;;;14.50;;
21034;SDS011;10676;50.848;3.272;2023-05-10T08:50:40;19.75;;;13.18;;
21034;SDS011;10676;50.848;3.272;2023-05-10T08:53:10;28.75;;;14.27;;
21034;SDS011;10676;50.848;3.272;2023-05-10T08:55:38;21.63;;;13.57;;
21034;SDS011;10676;50.848;3.272;2023-05-10T08:58:05;26.02;;;15.63;;
21034;SDS011;10676;50.848;3.272;2023-05-10T09:00:32;22.08;;;14.25;;
21034;SDS011;10676;50.848;3.272;2023-05-10T09:02:58;26.85;;;14.80;;
21034;SDS011;10676;50.848;3.272;2023-05-10T09:05:24;21.77;;;14.90;;
21034;SDS011;10676;50.848;3.272;2023-05-10T09:07:51;23.08;;;15.57;;
21034;SDS011;10676;50.848;3.272;2023-05-10T09:10:18;28.20;;;15.35;;
21034;SDS011;10676;50.848;3.272;2023-05-10T09:12:44;22.90;;;15.43;;
21034;SDS011;10676;50.848;3.272;2023-05-10T09:15:10;22.48;;;14.60;;
21034;SDS011;10676;50.848;3.272;2023-05-10T09:17:38;23.15;;;14.77;;
21034;SDS011;10676;50.848;3.272;2023-05-10T09:20:05;21.23;;;13.77;;
21034;SDS011;10676;50.848;3.272;2023-05-10T09:22:31;21.88;;;14.77;;
21034;SDS011;10676;50.848;3.272;2023-05-10T09:25:05;25.00;;;15.52;;
21034;SDS011;10676;50.848;3.272;2023-05-10T09:27:31;21.95;;;16.13;;
21034;SDS011;10676;50.848;3.272;2023-05-10T09:29:57;23.48;;;15.43;;
21034;SDS011;10676;50.848;3.272;2023-05-10T09:32:35;22.35;;;15.60;;
21034;SDS011;10676;50.848;3.272;2023-05-10T09:35:12;32.80;;;16.88;;
21034;SDS011;10676;50.848;3.272;2023-05-10T09:37:40;24.20;;;15.93;;
21034;SDS011;10676;50.848;3.272;2023-05-10T09:40:07;28.00;;;15.85;;
21034;SDS011;10676;50.848;3.272;2023-05-10T09:42:36;23.45;;;15.73;;
21034;SDS011;10676;50.848;3.272;2023-05-10T09:45:02;23.67;;;15.43;;
21034;SDS011;10676;50.848;3.272;2023-05-10T09:47:29;29.20;;;16.23;;
21034;SDS011;10676;50.848;3.272;2023-05-10T09:49:57;26.45;;;15.75;;
21034;SDS011;10676;50.848;3.272;2023-05-10T09:52:28;25.77;;;16.88;;
21034;SDS011;10676;50.848;3.272;2023-05-10T09:54:54;28.15;;;16.63;;
21034;SDS011;10676;50.848;3.272;2023-05-10T09:57:23;27.02;;;16.33;;
21034;SDS011;10676;50.848;3.272;2023-05-10T09:59:54;30.08;;;16.20;;
21034;SDS011;10676;50.848;3.272;2023-05-10T10:02:19;27.98;;;16.42;;
21034;SDS011;10676;50.848;3.272;2023-05-10T10:04:48;30.55;;;17.33;;
21034;SDS011;10676;50.848;3.272;2023-05-10T10:07:15;28.35;;;16.40;;
21034;SDS011;10676;50.848;3.272;2023-05-10T10:09:49;26.02;;;16.02;;
21034;SDS011;10676;50.848;3.272;2023-05-10T10:12:15;29.55;;;17.17;;
21034;SDS011;10676;50.848;3.272;2023-05-10T10:14:40;24.95;;;16.13;;
21034;SDS011;10676;50.848;3.272;2023-05-10T10:17:07;29.60;;;17.80;;
21034;SDS011;10676;50.848;3.272;2023-05-10T10:19:33;29.23;;;16.40;;
21034;SDS011;10676;50.848;3.272;2023-05-10T10:22:03;29.92;;;16.08;;
21034;SDS011;10676;50.848;3.272;2023-05-10T10:24:29;25.63;;;16.15;;
21034;SDS011;10676;50.848;3.272;2023-05-10T10:26:55;28.02;;;15.40;;
21034;SDS011;10676;50.848;3.272;2023-05-10T10:32:18;23.30;;;15.00;;
21034;SDS011;10676;50.848;3.272;2023-05-10T10:34:55;26.63;;;14.50;;
21034;SDS011;10676;50.848;3.272;2023-05-10T10:37:21;25.13;;;13.60;;
21034;SDS011;10676;50.848;3.272;2023-05-10T10:39:50;21.30;;;13.65;;
21034;SDS011;10676;50.848;3.272;2023-05-10T10:42:37;19.50;;;12.77;;
21034;SDS011;10676;50.848;3.272;2023-05-10T10:45:15;17.52;;;11.90;;
21034;SDS011;10676;50.848;3.272;2023-05-10T10:47:41;24.38;;;12.00;;
21034;SDS011;10676;50.848;3.272;2023-05-10T10:50:08;19.13;;;10.68;;
21034;SDS011;10676;50.848;3.272;2023-05-10T10:52:38;16.40;;;11.10;;
21034;SDS011;10676;50.848;3.272;2023-05-10T10:55:16;14.27;;;11.10;;
21034;SDS011;10676;50.848;3.272;2023-05-10T10:57:47;23.55;;;13.73;;
21034;SDS011;10676;50.848;3.272;2023-05-10T11:02:49;17.70;;;15.10;;
21034;SDS011;10676;50.848;3.272;2023-05-10T11:13:31;17.98;;;13.32;;
21034;SDS011;10676;50.848;3.272;2023-05-10T11:16:18;15.90;;;13.88;;
21034;SDS011;10676;50.848;3.272;2023-05-10T11:21:27;17.58;;;15.65;;
21034;SDS011;10676;50.848;3.272;2023-05-10T11:23:54;18.67;;;16.50;;
21034;SDS011;10676;50.848;3.272;2023-05-10T11:26:23;20.92;;;18.27;;
21034;SDS011;10676;50.848;3.272;2023-05-10T11:28:51;20.67;;;16.77;;
21034;SDS011;10676;50.848;3.272;2023-05-10T11:31:20;23.17;;;18.58;;
21034;SDS011;10676;50.848;3.272;2023-05-10T11:33:49;19.55;;;17.65;;
21034;SDS011;10676;50.848;3.272;2023-05-10T11:36:17;20.17;;;18.08;;
21034;SDS011;10676;50.848;3.272;2023-05-10T11:38:44;19.45;;;17.58;;
21034;SDS011;10676;50.848;3.272;2023-05-10T11:41:11;21.65;;;18.90;;
21034;SDS011;10676;50.848;3.272;2023-05-10T11:43:41;22.65;;;19.58;;
21034;SDS011;10676;50.848;3.272;2023-05-10T11:46:07;22.58;;;20.00;;
21034;SDS011;10676;50.848;3.272;2023-05-10T11:48:35;24.77;;;19.08;;
21034;SDS011;10676;50.848;3.272;2023-05-10T11:51:01;21.20;;;19.02;;
21034;SDS011;10676;50.848;3.272;2023-05-10T11:53:31;23.15;;;19.73;;
21034;SDS011;10676;50.848;3.272;2023-05-10T11:58:30;22.58;;;19.75;;
21034;SDS011;10676;50.848;3.272;2023-05-10T12:00:57;20.88;;;15.30;;
21034;SDS011;10676;50.848;3.272;2023-05-10T12:03:24;22.95;;;14.20;;
21034;SDS011;10676;50.848;3.272;2023-05-10T12:05:50;18.00;;;13.25;;
21034;SDS011;10676;50.848;3.272;2023-05-10T12:08:19;15.23;;;10.63;;
21034;SDS011;10676;50.848;3.272;2023-05-10T12:10:46;15.77;;;10.57;;
21034;SDS011;10676;50.848;3.272;2023-05-10T12:13:12;15.55;;;10.18;;
21034;SDS011;10676;50.848;3.272;2023-05-10T12:15:41;12.35;;;10.68;;
21034;SDS011;10676;50.848;3.272;2023-05-10T12:18:08;12.13;;;10.23;;
21034;SDS011;10676;50.848;3.272;2023-05-10T12:20:37;10.98;;;8.98;;
21034;SDS011;10676;50.848;3.272;2023-05-10T12:23:04;12.32;;;8.20;;
21034;SDS011;10676;50.848;3.272;2023-05-10T12:25:34;11.27;;;8.75;;
21034;SDS011;10676;50.848;3.272;2023-05-10T12:28:03;9.30;;;7.18;;
21034;SDS011;10676;50.848;3.272;2023-05-10T12:30:31;10.00;;;7.20;;
21034;SDS011;10676;50.848;3.272;2023-05-10T12:33:01;8.45;;;7.47;;
21034;SDS011;10676;50.848;3.272;2023-05-10T12:35:32;8.82;;;6.85;;
21034;SDS011;10676;50.848;3.272;2023-05-10T12:43:30;6.60;;;5.97;;
21034;SDS011;10676;50.848;3.272;2023-05-10T12:45:56;7.47;;;6.78;;
21034;SDS011;10676;50.848;3.272;2023-05-10T12:48:22;7.75;;;7.00;;
21034;SDS011;10676;50.848;3.272;2023-05-10T12:50:48;8.50;;;6.68;;
21034;SDS011;10676;50.848;3.272;2023-05-10T12:53:14;7.43;;;6.38;;
21034;SDS011;10676;50.848;3.272;2023-05-10T12:55:41;6.82;;;6.05;;
21034;SDS011;10676;50.848;3.272;2023-05-10T12:58:07;6.75;;;5.85;;
21034;SDS011;10676;50.848;3.272;2023-05-10T13:00:33;6.95;;;5.57;;
21034;SDS011;10676;50.848;3.272;2023-05-10T13:02:58;6.57;;;5.50;;
21034;SDS011;10676;50.848;3.272;2023-05-10T13:05:25;9.70;;;5.60;;
21034;SDS011;10676;50.848;3.272;2023-05-10T13:07:51;7.53;;;6.53;;
21034;SDS011;10676;50.848;3.272;2023-05-10T13:10:17;8.30;;;5.93;;
21034;SDS011;10676;50.848;3.272;2023-05-10T13:12:42;8.98;;;6.45;;
21034;SDS011;10676;50.848;3.272;2023-05-10T13:15:08;8.52;;;6.10;;
21034;SDS011;10676;50.848;3.272;2023-05-10T13:17:34;7.72;;;6.43;;
21034;SDS011;10676;50.848;3.272;2023-05-10T13:20:00;9.02;;;6.00;;
21034;SDS011;10676;50.848;3.272;2023-05-10T13:22:25;8.48;;;6.82;;
21034;SDS011;10676;50.848;3.272;2023-05-10T13:24:51;10.13;;;6.18;;
21034;SDS011;10676;50.848;3.272;2023-05-10T13:27:17;10.00;;;6.60;;
21034;SDS011;10676;50.848;3.272;2023-05-10T13:29:42;8.00;;;6.93;;
21034;SDS011;10676;50.848;3.272;2023-05-10T13:32:08;9.50;;;7.03;;
21034;SDS011;10676;50.848;3.272;2023-05-10T13:34:34;7.88;;;6.47;;
21034;SDS011;10676;50.848;3.272;2023-05-10T13:37:00;7.43;;;6.38;;
21034;SDS011;10676;50.848;3.272;2023-05-10T13:39:26;11.73;;;7.38;;
21034;SDS011;10676;50.848;3.272;2023-05-10T13:41:52;7.65;;;6.45;;
21034;SDS011;10676;50.848;3.272;2023-05-10T13:44:19;8.13;;;6.30;;
21034;SDS011;10676;50.848;3.272;2023-05-10T13:46:45;10.80;;;6.95;;
21034;SDS011;10676;50.848;3.272;2023-05-10T13:49:11;10.00;;;6.72;;
21034;SDS011;10676;50.848;3.272;2023-05-10T13:51:37;9.73;;;5.78;;
21034;SDS011;10676;50.848;3.272;2023-05-10T13:54:02;7.45;;;6.03;;
21034;SDS011;10676;50.848;3.272;2023-05-10T13:56:28;6.75;;;5.80;;
21034;SDS011;10676;50.848;3.272;2023-05-10T13:58:55;5.57;;;5.18;;
21034;SDS011;10676;50.848;3.272;2023-05-10T14:01:22;7.03;;;6.03;;
21034;SDS011;10676;50.848;3.272;2023-05-10T14:03:52;7.55;;;6.65;;
21034;SDS011;10676;50.848;3.272;2023-05-10T14:06:18;8.73;;;5.80;;
21034;SDS011;10676;50.848;3.272;2023-05-10T14:08:43;8.75;;;6.97;;
21034;SDS011;10676;50.848;3.272;2023-05-10T14:11:09;8.32;;;6.20;;
21034;SDS011;10676;50.848;3.272;2023-05-10T14:13:35;7.10;;;6.40;;
21034;SDS011;10676;50.848;3.272;2023-05-10T14:16:01;6.97;;;6.18;;
21034;SDS011;10676;50.848;3.272;2023-05-10T14:18:27;7.15;;;5.82;;
21034;SDS011;10676;50.848;3.272;2023-05-10T14:20:53;7.85;;;6.53;;
21034;SDS011;10676;50.848;3.272;2023-05-10T14:23:19;8.55;;;6.57;;
21034;SDS011;10676;50.848;3.272;2023-05-10T14:25:49;8.10;;;7.30;;
21034;SDS011;10676;50.848;3.272;2023-05-10T14:28:17;7.45;;;6.75;;
21034;SDS011;10676;50.848;3.272;2023-05-10T14:30:51;8.02;;;7.45;;
21034;SDS011;10676;50.848;3.272;2023-05-10T14:33:17;8.80;;;7.90;;
21034;SDS011;10676;50.848;3.272;2023-05-10T14:35:42;8.05;;;7.20;;
21034;SDS011;10676;50.848;3.272;2023-05-10T14:38:09;7.82;;;7.18;;
21034;SDS011;10676;50.848;3.272;2023-05-10T14:43:07;8.48;;;7.63;;
21034;SDS011;10676;50.848;3.272;2023-05-10T14:45:33;7.70;;;7.07;;
21034;SDS011;10676;50.848;3.272;2023-05-10T14:47:59;11.88;;;7.93;;
21034;SDS011;10676;50.848;3.272;2023-05-10T14:50:25;8.00;;;7.30;;
21034;SDS011;10676;50.848;3.272;2023-05-10T14:52:50;8.43;;;6.95;;
21034;SDS011;10676;50.848;3.272;2023-05-10T14:55:16;8.02;;;6.93;;
21034;SDS011;10676;50.848;3.272;2023-05-10T14:57:42;10.00;;;6.95;;
21034;SDS011;10676;50.848;3.272;2023-05-10T15:00:09;8.50;;;7.18;;
21034;SDS011;10676;50.848;3.272;2023-05-10T15:02:35;8.20;;;7.30;;
21034;SDS011;10676;50.848;3.272;2023-05-10T15:05:01;8.20;;;7.47;;
21034;SDS011;10676;50.848;3.272;2023-05-10T15:07:27;11.68;;;8.32;;
21034;SDS011;10676;50.848;3.272;2023-05-10T15:09:53;7.88;;;7.10;;
21034;SDS011;10676;50.848;3.272;2023-05-10T15:12:19;8.45;;;7.57;;
21034;SDS011;10676;50.848;3.272;2023-05-10T15:14:45;7.90;;;7.18;;